createdAt,value
2022-10-15T00:01:54.453Z,17.40
2022-10-15T00:04:23.353Z,17.50
2022-10-15T00:06:52.022Z,17.50
2022-10-15T00:09:21.058Z,17.40
2022-10-15T00:11:51.339Z,17.40
2022-10-15T00:14:20.406Z,17.40
2022-10-15T00:16:49.204Z,17.40
2022-10-15T00:19:18.796Z,17.40
2022-10-15T00:21:47.666Z,17.40
2022-10-15T00:24:16.542Z,17.40
2022-10-15T00:26:45.377Z,17.40
2022-10-15T00:29:15.565Z,17.40
2022-10-15T00:31:45.443Z,17.40
2022-10-15T00:34:15.560Z,17.40
2022-10-15T00:36:44.436Z,17.40
2022-10-15T00:39:13.615Z,17.40
2022-10-15T00:41:44.427Z,17.40
2022-10-15T00:44:59.095Z,17.40
2022-10-15T00:47:36.246Z,17.30
2022-10-15T00:50:08.211Z,17.40
2022-10-15T00:52:44.475Z,17.40
2022-10-15T00:55:17.260Z,17.40
2022-10-15T00:57:50.508Z,17.30
2022-10-15T01:00:19.938Z,17.30
2022-10-15T01:02:50.357Z,17.30
2022-10-15T01:05:20.350Z,17.30
2022-10-15T01:07:49.265Z,17.30
2022-10-15T01:10:19.423Z,17.30
2022-10-15T01:12:59.563Z,17.30
2022-10-15T01:15:34.799Z,17.30
2022-10-15T01:18:10.953Z,17.30
2022-10-15T01:20:52.236Z,17.40
2022-10-15T01:23:46.283Z,17.40
2022-10-15T01:26:48.033Z,17.30
2022-10-15T01:29:33.938Z,17.40
2022-10-15T01:32:12.525Z,17.40
2022-10-15T01:34:48.614Z,17.40
2022-10-15T01:37:23.025Z,17.40
2022-10-15T01:39:58.531Z,17.40
2022-10-15T01:42:32.820Z,17.40
2022-10-15T01:45:06.960Z,17.40
2022-10-15T01:47:50.567Z,17.40
2022-10-15T01:50:24.416Z,17.40
2022-10-15T01:52:55.723Z,17.40
2022-10-15T01:55:27.567Z,17.40
2022-10-15T01:57:59.722Z,17.40
2022-10-15T02:00:28.600Z,17.40
2022-10-15T02:03:02.125Z,17.40
2022-10-15T02:05:38.192Z,17.40
2022-10-15T02:08:18.877Z,17.40
2022-10-15T02:10:55.157Z,17.40
2022-10-15T02:13:27.844Z,17.40
2022-10-15T02:16:06.236Z,17.40
2022-10-15T02:18:41.980Z,17.40
2022-10-15T02:21:15.655Z,17.40
2022-10-15T02:23:52.621Z,17.40
2022-10-15T02:26:26.689Z,17.40
2022-10-15T02:28:59.212Z,17.30
2022-10-15T02:31:30.912Z,17.30
2022-10-15T02:34:05.883Z,17.40
2022-10-15T02:36:35.275Z,17.40
2022-10-15T02:39:10.444Z,17.40
2022-10-15T02:41:41.379Z,17.40
2022-10-15T02:44:14.202Z,17.40
2022-10-15T02:46:43.289Z,17.40
2022-10-15T02:49:14.819Z,17.40
2022-10-15T02:51:43.852Z,17.40
2022-10-15T02:54:14.956Z,17.40
2022-10-15T02:56:44.201Z,17.40
2022-10-15T02:59:13.731Z,17.40
2022-10-15T03:01:42.843Z,17.40
2022-10-15T03:04:13.834Z,17.40
2022-10-15T03:06:42.850Z,17.40
2022-10-15T03:09:12.198Z,17.40
2022-10-15T03:11:41.175Z,17.40
2022-10-15T03:14:10.395Z,17.40
2022-10-15T03:16:41.019Z,17.40
2022-10-15T03:19:11.766Z,17.40
2022-10-15T03:21:43.095Z,17.40
2022-10-15T03:24:16.578Z,17.40
2022-10-15T03:26:45.853Z,17.40
2022-10-15T03:29:14.742Z,17.50
2022-10-15T03:31:48.983Z,17.40
2022-10-15T03:34:18.419Z,17.50
2022-10-15T03:36:49.834Z,17.50
2022-10-15T03:39:19.759Z,17.40
2022-10-15T03:41:48.895Z,17.40
2022-10-15T03:44:24.824Z,17.40
2022-10-15T03:47:05.268Z,17.40
2022-10-15T03:49:43.571Z,17.40
2022-10-15T03:52:14.139Z,17.40
2022-10-15T03:54:44.165Z,17.40
2022-10-15T03:57:14.915Z,17.40
2022-10-15T03:59:53.437Z,17.40
2022-10-15T04:02:25.664Z,17.40
2022-10-15T04:04:56.340Z,17.40
2022-10-15T04:07:27.196Z,17.40
2022-10-15T04:09:56.166Z,17.40
2022-10-15T04:12:29.459Z,17.40
2022-10-15T04:14:58.632Z,17.40
2022-10-15T04:17:27.858Z,17.40
2022-10-15T04:19:56.742Z,17.40
2022-10-15T04:22:27.303Z,17.50
2022-10-15T04:25:01.128Z,17.50
2022-10-15T04:27:31.996Z,17.50
2022-10-15T04:30:09.087Z,17.50
2022-10-15T04:32:41.407Z,17.50
2022-10-15T04:35:10.928Z,17.50
2022-10-15T04:38:00.456Z,17.50
2022-10-15T04:40:36.542Z,17.50
2022-10-15T04:43:05.899Z,17.50
2022-10-15T04:45:35.076Z,17.50
2022-10-15T04:48:04.157Z,17.50
2022-10-15T04:50:33.171Z,17.50
2022-10-15T04:53:31.699Z,17.50
2022-10-15T04:56:05.326Z,17.50
2022-10-15T04:58:36.119Z,17.50
2022-10-15T05:01:06.917Z,17.50
2022-10-15T05:03:50.500Z,17.50
2022-10-15T05:06:21.810Z,17.50
2022-10-15T05:08:57.199Z,17.50
2022-10-15T05:11:30.104Z,17.50
2022-10-15T05:14:00.613Z,17.50
2022-10-15T05:16:31.352Z,17.50
2022-10-15T05:19:04.237Z,17.50
2022-10-15T05:21:35.674Z,17.50
2022-10-15T05:24:10.458Z,17.50
2022-10-15T05:26:56.804Z,17.50
2022-10-15T05:29:26.038Z,17.50
2022-10-15T05:31:55.042Z,17.50
2022-10-15T05:34:30.425Z,17.50
2022-10-15T05:37:07.994Z,17.50
2022-10-15T05:39:38.395Z,17.50
2022-10-15T05:42:07.234Z,17.50
2022-10-15T05:44:43.320Z,17.50
2022-10-15T05:47:12.600Z,17.50
2022-10-15T05:49:43.181Z,17.50
2022-10-15T05:52:25.325Z,17.50
2022-10-15T05:55:14.496Z,17.50
2022-10-15T05:57:43.458Z,17.50
2022-10-15T06:00:14.199Z,17.50
2022-10-15T06:02:43.352Z,17.50
2022-10-15T06:05:13.297Z,17.50
2022-10-15T06:07:42.236Z,17.50
2022-10-15T06:10:12.702Z,17.50
2022-10-15T06:12:44.000Z,17.50
2022-10-15T06:15:12.848Z,17.50
2022-10-15T06:17:41.833Z,17.50
2022-10-15T06:20:12.529Z,17.50
2022-10-15T06:22:41.339Z,17.50
2022-10-15T06:25:11.448Z,17.50
2022-10-15T06:27:42.123Z,17.50
2022-10-15T06:30:12.099Z,17.50
2022-10-15T06:32:41.383Z,17.50
2022-10-15T06:35:10.612Z,17.60
2022-10-15T06:37:39.725Z,17.60
2022-10-15T06:40:11.568Z,17.60
2022-10-15T06:42:45.654Z,17.60
2022-10-15T06:45:16.997Z,17.60
2022-10-15T06:47:48.301Z,17.60
2022-10-15T06:50:17.171Z,17.60
2022-10-15T06:52:46.030Z,17.70
2022-10-15T06:55:15.230Z,17.70
2022-10-15T06:57:45.429Z,17.70
2022-10-15T07:00:18.313Z,17.70
2022-10-15T07:02:49.337Z,17.70
2022-10-15T07:05:18.986Z,17.70
2022-10-15T07:07:52.872Z,17.70
2022-10-15T07:10:23.170Z,17.70
2022-10-15T07:12:54.915Z,17.80
2022-10-15T07:15:24.394Z,17.80
2022-10-15T07:17:56.601Z,17.80
2022-10-15T07:20:25.727Z,17.80
2022-10-15T07:22:58.092Z,17.80
2022-10-15T07:25:31.874Z,17.80
2022-10-15T07:28:02.439Z,17.80
2022-10-15T07:30:31.789Z,17.80
2022-10-15T07:33:01.013Z,17.80
2022-10-15T07:35:30.934Z,17.80
2022-10-15T07:38:02.384Z,17.90
2022-10-15T07:40:31.691Z,17.90
2022-10-15T07:43:02.398Z,17.90
2022-10-15T07:45:33.484Z,17.90
2022-10-15T07:48:02.567Z,17.90
2022-10-15T07:50:35.443Z,18.00
2022-10-15T07:53:09.421Z,18.00
2022-10-15T07:55:39.247Z,18.00
2022-10-15T07:58:09.762Z,18.10
2022-10-15T08:00:38.912Z,18.10
2022-10-15T08:03:08.283Z,18.20
2022-10-15T08:05:37.289Z,18.20
2022-10-15T08:08:06.694Z,18.20
2022-10-15T08:10:37.518Z,18.20
2022-10-15T08:13:06.729Z,18.30
2022-10-15T08:15:40.607Z,18.30
2022-10-15T08:18:09.964Z,18.40
2022-10-15T08:20:38.983Z,18.40
2022-10-15T08:23:16.207Z,18.40
2022-10-15T08:25:45.591Z,18.50
2022-10-15T08:28:16.668Z,18.50
2022-10-15T08:30:46.984Z,18.60
2022-10-15T08:33:16.108Z,18.60
2022-10-15T08:35:45.304Z,18.60
2022-10-15T08:38:17.512Z,18.60
2022-10-15T08:40:50.543Z,18.60
2022-10-15T08:43:24.364Z,18.60
2022-10-15T08:45:58.819Z,18.60
2022-10-15T08:48:32.079Z,18.60
2022-10-15T08:51:04.972Z,18.70
2022-10-15T08:53:39.902Z,18.70
2022-10-15T08:56:16.925Z,18.70
2022-10-15T08:58:52.742Z,18.70
2022-10-15T09:01:30.568Z,18.70
2022-10-15T09:04:15.783Z,18.70
2022-10-15T09:06:45.451Z,18.70
2022-10-15T09:09:21.623Z,18.70
2022-10-15T09:12:00.294Z,18.70
2022-10-15T09:14:34.720Z,18.80
2022-10-15T09:17:15.295Z,18.80
2022-10-15T09:19:47.319Z,18.80
2022-10-15T09:22:20.023Z,18.80
2022-10-15T09:24:49.163Z,18.80
2022-10-15T09:27:31.443Z,18.80
2022-10-15T09:30:06.900Z,18.90
2022-10-15T09:32:42.424Z,18.90
2022-10-15T09:35:18.059Z,18.90
2022-10-15T09:37:53.894Z,18.90
2022-10-15T09:40:37.094Z,18.90
2022-10-15T09:43:06.931Z,18.90
2022-10-15T09:45:35.843Z,18.90
2022-10-15T09:48:16.400Z,18.90
2022-10-15T09:50:55.053Z,18.90
2022-10-15T09:53:34.121Z,19.00
2022-10-15T09:56:09.182Z,19.00
2022-10-15T09:58:50.823Z,19.00
2022-10-15T10:01:22.213Z,19.00
2022-10-15T10:04:09.887Z,19.00
2022-10-15T10:06:46.206Z,19.10
2022-10-15T10:09:20.220Z,19.10
2022-10-15T10:11:52.819Z,19.20
2022-10-15T10:14:28.612Z,19.20
2022-10-15T10:17:17.310Z,19.30
2022-10-15T10:20:05.554Z,19.30
2022-10-15T10:22:46.573Z,19.40
2022-10-15T10:25:30.481Z,19.40
2022-10-15T10:28:05.472Z,19.50
2022-10-15T10:30:37.405Z,19.50
2022-10-15T10:33:07.333Z,19.50
2022-10-15T10:35:47.389Z,19.50
2022-10-15T10:38:22.215Z,19.60
2022-10-15T10:40:52.452Z,19.70
2022-10-15T10:43:26.370Z,19.70
2022-10-15T10:45:57.756Z,19.80
2022-10-15T10:48:29.447Z,19.90
2022-10-15T10:51:10.511Z,19.90
2022-10-15T10:53:52.911Z,20.10
2022-10-15T10:56:26.160Z,20.10
2022-10-15T10:58:58.982Z,20.20
2022-10-15T11:01:29.003Z,20.30
2022-10-15T11:03:57.995Z,20.30
2022-10-15T11:06:57.070Z,20.40
2022-10-15T11:09:52.314Z,20.50
2022-10-15T11:12:41.007Z,20.50
2022-10-15T11:15:25.215Z,20.50
2022-10-15T11:18:07.531Z,20.70
2022-10-15T11:20:58.681Z,20.80
2022-10-15T11:23:47.854Z,20.90
2022-10-15T11:26:37.597Z,21.00
2022-10-15T11:29:34.839Z,21.10
2022-10-15T11:32:17.230Z,21.20
2022-10-15T11:35:05.439Z,21.30
2022-10-15T11:37:45.927Z,21.40
2022-10-15T11:40:26.012Z,21.40
2022-10-15T11:42:58.263Z,21.40
2022-10-15T11:45:54.178Z,21.40
2022-10-15T11:48:36.690Z,21.40
2022-10-15T11:51:13.181Z,21.40
2022-10-15T11:54:13.473Z,21.50
2022-10-15T11:56:47.709Z,21.60
2022-10-15T11:59:26.528Z,21.60
2022-10-15T12:01:59.083Z,21.70
2022-10-15T12:04:34.815Z,21.70
2022-10-15T12:07:07.734Z,21.80
2022-10-15T12:09:41.895Z,21.90
2022-10-15T12:12:20.126Z,22.00
2022-10-15T12:14:57.702Z,22.10
2022-10-15T12:17:37.510Z,22.30
2022-10-15T12:20:13.070Z,22.40
2022-10-15T12:22:55.903Z,22.40
2022-10-15T12:25:44.811Z,22.40
2022-10-15T12:28:21.720Z,22.40
2022-10-15T12:30:56.899Z,22.30
2022-10-15T12:33:36.064Z,22.20
2022-10-15T12:36:09.851Z,22.10
2022-10-15T12:38:41.702Z,22.00
2022-10-15T12:41:12.416Z,21.90
2022-10-15T12:43:46.709Z,21.90
2022-10-15T12:46:15.796Z,21.70
2022-10-15T12:48:46.345Z,21.80
2022-10-15T12:51:40.111Z,21.70
2022-10-15T12:54:35.185Z,21.60
2022-10-15T12:57:25.881Z,21.60
2022-10-15T13:00:00.340Z,21.50
2022-10-15T13:05:28.227Z,21.30
2022-10-15T13:07:59.582Z,21.30
2022-10-15T13:10:30.820Z,21.20
2022-10-15T13:13:02.558Z,21.20
2022-10-15T13:15:35.213Z,21.10
2022-10-15T13:18:09.482Z,21.10
2022-10-15T13:20:40.885Z,21.10
2022-10-15T13:23:29.400Z,21.10
2022-10-15T13:26:19.458Z,21.00
2022-10-15T13:28:49.236Z,21.00
2022-10-15T13:31:27.471Z,20.90
2022-10-15T13:34:02.345Z,20.80
2022-10-15T13:36:33.420Z,20.80
2022-10-15T13:39:06.434Z,20.70
2022-10-15T13:41:37.721Z,20.70
2022-10-15T13:44:06.730Z,20.70
2022-10-15T13:46:38.932Z,20.70
2022-10-15T13:49:13.048Z,20.70
2022-10-15T13:51:44.484Z,20.70
2022-10-15T13:54:18.294Z,20.70
2022-10-15T13:56:53.903Z,20.70
2022-10-15T13:59:24.098Z,20.70
2022-10-15T14:02:00.960Z,20.60
2022-10-15T14:04:31.289Z,20.60
2022-10-15T14:07:04.584Z,20.60
2022-10-15T14:09:35.374Z,20.60
2022-10-15T14:12:07.463Z,20.60
2022-10-15T14:14:39.240Z,20.60
2022-10-15T14:17:13.182Z,20.60
2022-10-15T14:19:51.480Z,20.60
2022-10-15T14:22:31.698Z,20.70
2022-10-15T14:25:01.191Z,20.70
2022-10-15T14:27:30.766Z,20.70
2022-10-15T14:30:02.611Z,20.60
2022-10-15T14:32:46.885Z,20.60
2022-10-15T14:35:25.644Z,20.60
2022-10-15T14:38:01.998Z,20.60
2022-10-15T14:40:31.722Z,20.60
2022-10-15T14:43:05.937Z,20.60
2022-10-15T14:45:55.758Z,20.60
2022-10-15T14:48:28.050Z,20.60
2022-10-15T14:51:00.571Z,20.50
2022-10-15T14:53:32.609Z,20.50
2022-10-15T14:56:05.024Z,20.40
2022-10-15T14:58:34.117Z,20.40
2022-10-15T15:01:05.472Z,20.40
2022-10-15T15:03:42.645Z,20.40
2022-10-15T15:06:11.828Z,20.40
2022-10-15T15:08:40.768Z,20.40
2022-10-15T15:11:14.274Z,20.40
2022-10-15T15:13:45.235Z,20.40
2022-10-15T15:16:15.663Z,20.40
2022-10-15T15:18:48.288Z,20.40
2022-10-15T15:21:21.650Z,20.40
2022-10-15T15:23:50.631Z,20.30
2022-10-15T15:26:19.331Z,20.30
2022-10-15T15:28:48.243Z,20.30
2022-10-15T15:31:19.163Z,20.30
2022-10-15T15:33:49.381Z,20.30
2022-10-15T15:36:23.264Z,20.20
2022-10-15T15:38:53.505Z,20.20
2022-10-15T15:41:24.811Z,20.20
2022-10-15T15:43:54.933Z,20.20
2022-10-15T15:46:24.097Z,20.10
2022-10-15T15:48:54.495Z,20.10
2022-10-15T15:51:26.585Z,20.10
2022-10-15T15:53:55.879Z,20.10
2022-10-15T15:56:25.448Z,20.10
2022-10-15T15:58:54.426Z,20.10
2022-10-15T16:01:23.477Z,20.10
2022-10-15T16:03:53.905Z,20.00
2022-10-15T16:06:22.991Z,20.00
2022-10-15T16:08:53.281Z,20.00
2022-10-15T16:11:22.415Z,20.00
2022-10-15T16:13:51.227Z,20.00
2022-10-15T16:16:20.110Z,19.90
2022-10-15T16:18:49.119Z,19.90
2022-10-15T16:21:23.805Z,19.90
2022-10-15T16:23:52.971Z,19.90
2022-10-15T16:26:22.278Z,19.90
2022-10-15T16:28:51.311Z,19.80
2022-10-15T16:31:25.330Z,19.80
2022-10-15T16:33:57.208Z,19.80
2022-10-15T16:36:27.692Z,19.80
2022-10-15T16:38:56.875Z,19.80
2022-10-15T16:41:25.715Z,19.80
2022-10-15T16:43:55.267Z,19.80
2022-10-15T16:46:24.295Z,19.80
2022-10-15T16:48:55.137Z,19.80
2022-10-15T16:51:25.298Z,19.80
2022-10-15T16:53:56.062Z,19.80
2022-10-15T16:56:26.922Z,19.80
2022-10-15T16:58:57.092Z,19.80
2022-10-15T17:01:28.687Z,19.80
2022-10-15T17:03:59.862Z,19.80
2022-10-15T17:06:31.446Z,19.80
2022-10-15T17:09:04.173Z,19.80
2022-10-15T17:11:35.827Z,19.80
2022-10-15T17:14:07.030Z,19.80
2022-10-15T17:16:39.059Z,19.80
2022-10-15T17:19:08.568Z,19.80
2022-10-15T17:21:39.633Z,19.70
2022-10-15T17:24:13.368Z,19.70
2022-10-15T17:26:43.618Z,19.70
2022-10-15T17:29:16.165Z,19.70
2022-10-15T17:31:45.140Z,19.70
2022-10-15T17:34:14.824Z,19.70
2022-10-15T17:36:47.151Z,19.60
2022-10-15T17:39:19.443Z,19.60
2022-10-15T17:41:48.531Z,19.60
2022-10-15T17:44:17.352Z,19.60
2022-10-15T17:46:46.393Z,19.60
2022-10-15T17:49:18.490Z,19.60
2022-10-15T17:51:48.361Z,19.60
2022-10-15T17:54:18.700Z,19.60
2022-10-15T17:56:48.554Z,19.60
2022-10-15T17:59:18.043Z,19.60
2022-10-15T18:02:02.473Z,19.60
2022-10-15T18:04:35.986Z,19.50
2022-10-15T18:07:05.004Z,19.60
2022-10-15T18:09:36.062Z,19.50
2022-10-15T18:12:05.543Z,19.50
2022-10-15T18:14:36.043Z,19.50
2022-10-15T18:17:05.879Z,19.50
2022-10-15T18:19:34.673Z,19.50
2022-10-15T18:22:03.776Z,19.60
2022-10-15T18:24:33.165Z,19.60
2022-10-15T18:27:07.791Z,19.60
2022-10-15T18:29:36.952Z,19.60
2022-10-15T18:32:05.957Z,19.60
2022-10-15T18:34:35.579Z,19.60
2022-10-15T18:37:04.391Z,19.60
2022-10-15T18:39:33.178Z,19.60
2022-10-15T18:42:03.708Z,19.60
2022-10-15T18:44:34.421Z,19.50
2022-10-15T18:47:03.153Z,19.50
2022-10-15T18:49:33.047Z,19.50
2022-10-15T18:52:10.657Z,19.50
2022-10-15T18:54:50.690Z,19.50
2022-10-15T18:57:19.454Z,19.50
2022-10-15T18:59:49.502Z,19.40
2022-10-15T19:02:18.314Z,19.40
2022-10-15T19:04:47.418Z,19.40
2022-10-15T19:07:16.512Z,19.40
2022-10-15T19:09:47.700Z,19.40
2022-10-15T19:12:19.225Z,19.40
2022-10-15T19:14:49.514Z,19.50
2022-10-15T19:17:18.220Z,19.40
2022-10-15T19:19:50.039Z,19.50
2022-10-15T19:22:19.400Z,19.50
2022-10-15T19:24:48.346Z,19.40
2022-10-15T19:27:17.096Z,19.40
2022-10-15T19:30:15.977Z,19.50
2022-10-15T19:32:47.192Z,19.50
2022-10-15T19:35:16.181Z,19.50
2022-10-15T19:37:45.740Z,19.40
2022-10-15T19:40:15.006Z,19.40
2022-10-15T19:42:44.135Z,19.40
2022-10-15T19:45:13.052Z,19.40
2022-10-15T19:47:43.346Z,19.40
2022-10-15T19:50:12.492Z,19.40
2022-10-15T19:52:41.713Z,19.40
2022-10-15T19:55:10.775Z,19.30
2022-10-15T19:57:39.534Z,19.30
2022-10-15T20:00:09.638Z,19.30
2022-10-15T20:02:43.014Z,19.30
2022-10-15T20:05:11.996Z,19.30
2022-10-15T20:07:40.887Z,19.30
2022-10-15T20:10:10.887Z,19.30
2022-10-15T20:12:40.121Z,19.30
2022-10-15T20:15:10.839Z,19.30
2022-10-15T20:17:40.108Z,19.30
2022-10-15T20:20:10.376Z,19.30
2022-10-15T20:22:39.112Z,19.20
2022-10-15T20:25:08.387Z,19.20
2022-10-15T20:27:37.402Z,19.20
2022-10-15T20:30:07.083Z,19.20
2022-10-15T20:32:36.986Z,19.20
2022-10-15T20:35:06.840Z,19.20
2022-10-15T20:37:37.115Z,19.20
2022-10-15T20:40:07.601Z,19.20
2022-10-15T20:42:37.705Z,19.20
2022-10-15T20:45:09.459Z,19.20
2022-10-15T20:47:42.098Z,19.20
2022-10-15T20:50:14.611Z,19.20
2022-10-15T20:52:45.257Z,19.20
2022-10-15T20:55:14.570Z,19.20
2022-10-15T20:57:43.525Z,19.10
2022-10-15T21:00:14.066Z,19.10
2022-10-15T21:02:43.338Z,19.10
2022-10-15T21:05:12.337Z,19.10
2022-10-15T21:07:41.112Z,19.10
2022-10-15T21:10:11.652Z,19.10
2022-10-15T21:12:40.874Z,19.10
2022-10-15T21:15:10.479Z,19.10
2022-10-15T21:17:40.922Z,19.10
2022-10-15T21:20:10.566Z,19.10
2022-10-15T21:22:39.573Z,19.10
2022-10-15T21:25:09.268Z,19.00
2022-10-15T21:27:39.558Z,19.00
2022-10-15T21:30:10.273Z,19.00
2022-10-15T21:32:39.391Z,19.00
2022-10-15T21:35:09.107Z,19.00
2022-10-15T21:37:38.939Z,19.00
2022-10-15T21:40:09.137Z,18.90
2022-10-15T21:42:40.169Z,18.90
2022-10-15T21:45:10.796Z,18.90
2022-10-15T21:47:39.875Z,18.90
2022-10-15T21:50:09.510Z,18.90
2022-10-15T21:52:38.474Z,18.90
2022-10-15T21:55:08.409Z,18.90
2022-10-15T21:57:38.749Z,18.90
2022-10-15T22:00:14.599Z,18.90
2022-10-15T22:02:50.521Z,18.90
2022-10-15T22:05:19.578Z,18.90
2022-10-15T22:07:48.638Z,18.90
2022-10-15T22:10:17.812Z,18.90
2022-10-15T22:12:53.683Z,18.90
2022-10-15T22:15:22.590Z,18.90
2022-10-15T22:17:51.378Z,18.90
2022-10-15T22:20:23.704Z,18.90
2022-10-15T22:22:55.131Z,18.90
2022-10-15T22:25:24.034Z,18.90
2022-10-15T22:27:54.171Z,18.90
2022-10-15T22:30:23.017Z,18.90
2022-10-15T22:32:52.163Z,18.90
2022-10-15T22:35:21.782Z,18.90
2022-10-15T22:37:51.523Z,18.90
2022-10-15T22:40:20.516Z,18.90
2022-10-15T22:42:49.260Z,18.90
2022-10-15T22:45:19.471Z,18.90
2022-10-15T22:47:48.507Z,18.80
2022-10-15T22:50:17.535Z,18.80
2022-10-15T22:52:46.263Z,18.80
2022-10-15T22:55:15.290Z,18.80
2022-10-15T22:57:45.062Z,18.80
2022-10-15T23:00:16.149Z,18.80
2022-10-15T23:02:47.316Z,18.70
2022-10-15T23:05:16.532Z,18.70
2022-10-15T23:07:45.531Z,18.70
2022-10-15T23:10:14.723Z,18.70
2022-10-15T23:12:43.794Z,18.70
2022-10-15T23:15:13.131Z,18.70
2022-10-15T23:17:42.076Z,18.70
2022-10-15T23:20:12.862Z,18.60
2022-10-15T23:22:41.958Z,18.60
2022-10-15T23:25:11.139Z,18.60
2022-10-15T23:27:39.878Z,18.60
2022-10-15T23:30:14.682Z,18.60
2022-10-15T23:32:52.808Z,18.60
2022-10-15T23:35:24.928Z,18.60
2022-10-15T23:37:53.948Z,18.60
2022-10-15T23:40:22.806Z,18.60
2022-10-15T23:42:51.634Z,18.60
2022-10-15T23:45:20.673Z,18.60
2022-10-15T23:47:49.832Z,18.60
2022-10-15T23:50:18.872Z,18.60
2022-10-15T23:52:49.503Z,18.60
2022-10-15T23:55:18.386Z,18.60
2022-10-15T23:57:47.103Z,18.60
